Time;durP1;ratioP1;P1;durP2;ratioP2;P2;SDS_P1;SDS_P2;PMS_P1;PMS_P2;Temp;Humidity;BMP_temperature;BMP_pressure;BME280_temperature;BME280_humidity;BME280_pressure;Samples;Min_cycle;Max_cycle;Signal;HPM_P1;HPM_P2
2023/10/28 00:00:58;;;;;;;5.75;3.50;;;;;;;10.63;100.00;99135.03;5058351;28;20051;-65
2023/10/28 00:03:26;;;;;;;9.98;4.35;;;;;;;10.62;100.00;99126.44;5056544;28;20063;-64
2023/10/28 00:05:52;;;;;;;9.38;3.97;;;;;;;10.62;100.00;99134.19;5056267;28;20040;-65
2023/10/28 00:08:17;;;;;;;10.60;3.60;;;;;;;10.63;100.00;99142.78;5057437;28;20060;-64
2023/10/28 00:10:44;;;;;;;9.10;3.88;;;;;;;10.62;100.00;99135.94;5058263;28;20265;-64
2023/10/28 00:13:14;;;;;;;13.88;4.00;;;;;;;10.62;100.00;99141.09;5057647;28;20040;-66
2023/10/28 00:15:40;;;;;;;8.95;4.13;;;;;;;10.61;100.00;99140.25;5058544;28;20908;-66
2023/10/28 00:18:08;;;;;;;12.45;4.32;;;;;;;10.62;100.00;99141.09;5058191;28;20040;-66
2023/10/28 00:20:35;;;;;;;10.65;4.05;;;;;;;10.61;100.00;99142.84;5051813;28;20067;-66
2023/10/28 00:23:03;;;;;;;15.88;4.43;;;;;;;10.63;100.00;99138.47;5058380;28;20025;-66
2023/10/28 00:25:31;;;;;;;10.77;4.00;;;;;;;10.62;100.00;99141.94;5057614;28;20025;-66
2023/10/28 00:27:57;;;;;;;6.78;3.20;;;;;;;10.61;100.00;99140.25;5059401;28;20024;-66
2023/10/28 00:30:23;;;;;;;12.88;4.45;;;;;;;10.61;100.00;99139.41;5054440;28;20041;-66
2023/10/28 00:32:52;;;;;;;9.13;4.47;;;;;;;10.61;100.00;99140.25;5056179;28;20068;-66
2023/10/28 00:35:18;;;;;;;12.50;4.68;;;;;;;10.59;100.00;99136.06;5054047;28;20111;-66
2023/10/28 00:37:45;;;;;;;14.38;4.30;;;;;;;10.57;100.00;99138.66;5058038;28;20020;-66
2023/10/28 00:40:10;;;;;;;11.77;4.90;;;;;;;10.55;100.00;99129.28;5056729;28;20074;-66
2023/10/28 00:42:36;;;;;;;9.60;4.28;;;;;;;10.54;100.00;99131.03;5057046;28;20028;-66
2023/10/28 00:45:08;;;;;;;8.40;3.88;;;;;;;10.53;100.00;99131.94;5054395;28;20036;-66
2023/10/28 00:47:43;;;;;;;15.30;5.25;;;;;;;10.54;100.00;99135.34;5052718;28;20039;-66
2023/10/28 00:50:10;;;;;;;13.02;4.63;;;;;;;10.54;100.00;99136.19;5056236;28;20727;-66
2023/10/28 00:52:47;;;;;;;10.15;5.10;;;;;;;10.56;100.00;99139.59;5056780;28;20192;-66
2023/10/28 00:55:15;;;;;;;5.60;3.67;;;;;;;10.56;100.00;99142.16;5051544;28;20088;-66
2023/10/28 00:57:42;;;;;;;9.13;4.82;;;;;;;10.59;100.00;99147.22;5058267;28;20029;-66
2023/10/28 01:00:08;;;;;;;10.65;4.28;;;;;;;10.60;100.00;99138.56;5055546;28;20090;-66
2023/10/28 01:02:35;;;;;;;11.98;4.20;;;;;;;10.62;100.00;99138.53;5065112;28;20232;-66
2023/10/28 01:05:01;;;;;;;6.70;4.07;;;;;;;10.63;100.00;99135.88;5056974;28;20025;-67
2023/10/28 01:07:27;;;;;;;11.57;4.28;;;;;;;10.62;100.00;99134.19;5055760;28;20976;-69
2023/10/28 01:09:53;;;;;;;7.80;4.53;;;;;;;10.63;100.00;99135.03;5057776;28;20044;-66
2023/10/28 01:12:21;;;;;;;12.70;5.18;;;;;;;10.64;100.00;99132.41;5050843;28;20067;-66
2023/10/28 01:14:46;;;;;;;11.48;4.93;;;;;;;10.67;100.00;99134.03;5054473;28;20045;-67
2023/10/28 01:17:13;;;;;;;12.18;5.22;;;;;;;10.69;100.00;99130.50;5051623;28;20043;-67
2023/10/28 01:19:39;;;;;;;10.68;4.45;;;;;;;10.71;100.00;99131.28;5054579;28;20024;-68
2023/10/28 01:22:05;;;;;;;12.48;4.43;;;;;;;10.72;100.00;99130.38;5054635;28;20041;-68
2023/10/28 01:24:32;;;;;;;14.23;4.38;;;;;;;10.74;100.00;99133.75;5056885;28;20028;-68
2023/10/28 01:26:59;;;;;;;10.38;4.65;;;;;;;10.76;100.00;99133.72;5045578;28;20043;-68
2023/10/28 01:29:25;;;;;;;8.40;3.58;;;;;;;10.77;100.00;99125.91;5055168;28;20029;-68
2023/10/28 01:31:50;;;;;;;9.40;3.90;;;;;;;10.79;100.00;99124.13;5053306;28;20078;-68
2023/10/28 01:34:16;;;;;;;11.82;3.50;;;;;;;10.81;100.00;99126.63;5052777;28;20037;-67
2023/10/28 01:36:43;;;;;;;9.93;3.70;;;;;;;10.83;100.00;99126.59;5053011;28;20098;-68
2023/10/28 01:39:09;;;;;;;8.20;3.85;;;;;;;10.85;100.00;99130.81;5038061;28;20039;-67
2023/10/28 01:41:34;;;;;;;15.75;3.80;;;;;;;10.86;100.00;99127.31;5055335;28;20036;-68
2023/10/28 01:44:00;;;;;;;7.47;3.10;;;;;;;10.88;100.00;99135.03;5039571;28;20029;-68
2023/10/28 01:46:25;;;;;;;8.82;3.20;;;;;;;10.90;100.00;99134.06;5052725;28;20094;-68
2023/10/28 01:48:51;;;;;;;13.23;3.45;;;;;;;10.93;100.00;99143.44;5055970;28;20656;-68
2023/10/28 01:51:16;;;;;;;7.50;2.70;;;;;;;10.96;100.00;99146.78;5056573;28;20045;-68
2023/10/28 01:53:42;;;;;;;7.03;2.65;;;;;;;10.99;100.00;99151.84;5045587;28;20396;-68
2023/10/28 01:56:07;;;;;;;6.70;2.65;;;;;;;11.03;100.00;99160.34;5053628;28;20130;-68
2023/10/28 01:58:33;;;;;;;9.23;2.60;;;;;;;11.04;100.00;99159.44;5055219;28;20040;-68
2023/10/28 02:00:58;;;;;;;3.50;2.90;;;;;;;11.05;100.00;99164.53;5050408;28;20040;-66
2023/10/28 02:03:24;;;;;;;7.90;2.70;;;;;;;11.03;100.00;99156.00;5057334;28;20040;-69
2023/10/28 02:05:50;;;;;;;10.35;1.98;;;;;;;11.01;100.00;99156.97;5059678;28;20044;-68
2023/10/28 02:08:15;;;;;;;7.97;1.92;;;;;;;10.98;100.00;99151.91;5054298;28;20028;-68
2023/10/28 02:10:41;;;;;;;3.83;1.60;;;;;;;10.95;100.00;99152.84;5059813;28;20028;-68
2023/10/28 02:13:06;;;;;;;6.38;1.65;;;;;;;10.92;100.00;99152.94;5057752;28;20181;-68
2023/10/28 02:15:31;;;;;;;5.57;1.58;;;;;;;10.92;100.00;99157.28;5055543;28;20044;-68
2023/10/28 02:17:57;;;;;;;5.85;1.70;;;;;;;10.90;100.00;99159.06;5040859;28;20453;-68
2023/10/28 02:20:22;;;;;;;5.05;1.40;;;;;;;10.88;100.00;99160.88;5060093;28;20036;-68
2023/10/28 02:22:49;;;;;;;4.03;1.60;;;;;;;10.85;100.00;99161.81;5059488;28;20104;-68
2023/10/28 02:25:14;;;;;;;4.40;1.30;;;;;;;10.83;100.00;99168.81;5058470;28;20128;-68
2023/10/28 02:27:40;;;;;;;2.88;1.00;;;;;;;10.79;100.00;99167.22;5053956;28;20399;-68
2023/10/28 02:30:07;;;;;;;5.53;1.35;;;;;;;10.76;100.00;99165.56;5054402;28;20055;-68
2023/10/28 02:32:33;;;;;;;3.08;1.67;;;;;;;10.74;100.00;99164.75;5063167;28;20045;-68
2023/10/28 02:34:59;;;;;;;1.52;0.98;;;;;;;10.72;100.00;99156.22;5050500;28;20032;-68
2023/10/28 02:37:26;;;;;;;3.33;1.50;;;;;;;10.70;100.00;99164.94;5063839;28;20754;-68
2023/10/28 02:39:51;;;;;;;3.10;1.33;;;;;;;10.66;100.00;99156.44;5034593;28;20049;-68
2023/10/28 02:42:17;;;;;;;2.53;1.40;;;;;;;10.61;100.00;99155.75;5054069;28;20047;-68
2023/10/28 02:44:42;;;;;;;4.90;1.83;;;;;;;10.59;100.00;99167.06;5058495;28;20060;-68
2023/10/28 02:47:08;;;;;;;3.13;1.52;;;;;;;10.56;100.00;99169.75;5054904;28;20167;-68
2023/10/28 02:49:36;;;;;;;4.35;1.50;;;;;;;10.52;100.00;99166.41;5065041;28;20116;-68
2023/10/28 02:52:02;;;;;;;3.95;1.60;;;;;;;10.51;100.00;99164.72;5062381;28;20076;-68
2023/10/28 02:54:27;;;;;;;5.43;1.70;;;;;;;10.49;100.00;99168.25;5060454;28;20833;-68
2023/10/28 02:56:52;;;;;;;5.75;1.88;;;;;;;10.45;100.00;99164.06;5060007;28;20037;-68
2023/10/28 02:59:18;;;;;;;3.50;1.40;;;;;;;10.42;100.00;99165.00;5059313;28;20128;-68
2023/10/28 03:01:43;;;;;;;4.80;1.63;;;;;;;10.42;100.00;99161.59;5061066;28;20112;-68
2023/10/28 03:04:09;;;;;;;4.50;1.60;;;;;;;10.45;100.00;99166.66;5060137;28;20144;-68
2023/10/28 03:06:35;;;;;;;4.00;1.90;;;;;;;10.50;100.00;99170.78;5058728;28;20656;-68
2023/10/28 03:09:00;;;;;;;3.35;1.80;;;;;;;10.53;100.00;99172.41;5059094;28;20040;-68
2023/10/28 03:11:26;;;;;;;6.85;1.70;;;;;;;10.55;100.00;99171.47;5058821;28;20032;-68
2023/10/28 03:13:51;;;;;;;5.97;1.63;;;;;;;10.55;100.00;99175.78;5052041;28;20068;-67
2023/10/28 03:16:16;;;;;;;6.13;1.50;;;;;;;10.54;100.00;99179.25;5058039;28;20044;-68
2023/10/28 03:18:42;;;;;;;3.08;1.58;;;;;;;10.52;100.00;99179.31;5063515;28;20047;-66
2023/10/28 03:21:08;;;;;;;2.95;1.50;;;;;;;10.50;100.00;99180.28;5059775;28;20127;-66
2023/10/28 03:23:33;;;;;;;5.75;1.60;;;;;;;10.44;100.00;99175.31;5054658;28;20368;-66
2023/10/28 03:25:58;;;;;;;3.58;1.20;;;;;;;10.36;100.00;99175.53;5039089;28;20036;-66
2023/10/28 03:28:24;;;;;;;3.13;1.17;;;;;;;10.29;100.00;99170.66;5053984;28;20185;-66
2023/10/28 03:30:49;;;;;;;4.63;1.40;;;;;;;10.21;100.00;99171.72;5053219;28;20101;-66
2023/10/28 03:33:15;;;;;;;3.30;0.93;;;;;;;10.11;100.00;99180.69;5053510;28;20064;-66
2023/10/28 03:35:41;;;;;;;4.90;1.52;;;;;;;10.05;100.00;99173.13;5031446;28;20040;-66
2023/10/28 03:38:06;;;;;;;4.13;1.38;;;;;;;10.01;100.00;99178.41;5058391;28;20040;-66
2023/10/28 03:40:32;;;;;;;1.98;0.98;;;;;;;9.95;100.00;99181.19;5057596;28;20505;-66
2023/10/28 03:42:57;;;;;;;1.65;0.90;;;;;;;9.89;100.00;99182.22;5054859;28;20041;-66
2023/10/28 03:45:23;;;;;;;1.35;0.95;;;;;;;9.86;100.00;99186.63;5053807;28;20040;-66
2023/10/28 03:47:48;;;;;;;1.42;0.90;;;;;;;9.83;100.00;99194.47;5054672;28;20061;-66
2023/10/28 03:50:14;;;;;;;6.45;0.95;;;;;;;9.79;100.00;99192.88;5052960;28;20071;-66
2023/10/28 03:52:39;;;;;;;4.43;1.35;;;;;;;9.73;100.00;99196.50;5056303;28;20638;-66
2023/10/28 03:55:05;;;;;;;2.20;1.00;;;;;;;9.67;100.00;99191.53;5054206;28;20106;-65
2023/10/28 03:57:31;;;;;;;4.45;1.10;;;;;;;9.64;100.00;99195.00;5056063;28;20067;-66
2023/10/28 03:59:58;;;;;;;1.85;1.10;;;;;;;9.61;100.00;99191.72;5057707;28;20837;-66
2023/10/28 04:02:23;;;;;;;3.08;1.10;;;;;;;9.56;100.00;99188.34;5035532;28;20029;-66
2023/10/28 04:04:48;;;;;;;1.70;0.88;;;;;;;9.53;100.00;99193.59;5053825;28;20051;-65
2023/10/28 04:07:14;;;;;;;2.47;0.95;;;;;;;9.51;100.00;99193.66;5053119;28;20032;-66
2023/10/28 04:09:39;;;;;;;1.38;0.90;;;;;;;9.52;100.00;99179.91;5049558;28;20039;-66
2023/10/28 04:12:05;;;;;;;3.53;0.90;;;;;;;9.55;100.00;99184.97;5058001;28;20128;-66
2023/10/28 04:14:34;;;;;;;0.98;0.73;;;;;;;9.62;100.00;99186.47;5053142;28;20045;-66
2023/10/28 04:16:59;;;;;;;2.25;1.05;;;;;;;9.66;100.00;99185.50;5060056;28;20116;-66
2023/10/28 04:19:25;;;;;;;3.28;1.30;;;;;;;9.70;100.00;99183.69;5056821;28;20113;-66
2023/10/28 04:21:50;;;;;;;2.35;1.20;;;;;;;9.73;100.00;99180.16;5056811;28;20122;-66
2023/10/28 04:24:16;;;;;;;2.50;1.00;;;;;;;9.78;100.00;99189.47;5050791;28;20052;-66
2023/10/28 04:26:41;;;;;;;2.08;1.20;;;;;;;9.81;100.00;99183.34;5053211;28;20444;-66
2023/10/28 04:29:06;;;;;;;1.33;1.00;;;;;;;9.84;100.00;99191.00;5049679;28;20035;-66
2023/10/28 04:31:32;;;;;;;3.85;1.73;;;;;;;9.87;100.00;99189.19;5054356;28;20883;-66
2023/10/28 04:33:57;;;;;;;3.45;1.30;;;;;;;9.90;100.00;99189.09;5056761;28;20037;-66
2023/10/28 04:36:22;;;;;;;3.05;1.20;;;;;;;9.91;100.00;99180.44;5057027;28;20128;-66
2023/10/28 04:38:48;;;;;;;2.53;1.20;;;;;;;9.93;100.00;99181.25;5049859;28;20147;-66
2023/10/28 04:41:13;;;;;;;2.75;1.10;;;;;;;9.95;100.00;99176.88;5055664;28;20044;-66
2023/10/28 04:43:39;;;;;;;2.28;1.10;;;;;;;9.97;100.00;99179.44;5055417;28;20020;-66
2023/10/28 04:46:05;;;;;;;2.92;1.30;;;;;;;9.99;100.00;99182.78;5055649;28;20087;-66
2023/10/28 04:48:30;;;;;;;3.65;1.20;;;;;;;9.99;100.00;99185.38;5056058;28;20064;-66
2023/10/28 04:50:56;;;;;;;2.75;1.10;;;;;;;9.98;100.00;99176.78;5055868;28;20090;-66
2023/10/28 04:53:24;;;;;;;4.55;1.25;;;;;;;10.00;100.00;99175.00;5055867;28;20061;-66
2023/10/28 04:55:50;;;;;;;3.63;1.15;;;;;;;10.02;100.00;99177.53;5054087;28;20063;-66
2023/10/28 04:58:15;;;;;;;4.43;1.05;;;;;;;10.03;100.00;99176.66;5055590;28;20035;-66
2023/10/28 05:00:41;;;;;;;2.85;1.25;;;;;;;10.02;100.00;99177.53;5055836;28;20098;-66
2023/10/28 05:03:07;;;;;;;3.33;1.33;;;;;;;10.03;100.00;99181.81;5057344;28;20083;-66
2023/10/28 05:05:32;;;;;;;2.42;1.08;;;;;;;10.06;100.00;99177.38;5055705;28;20036;-66
2023/10/28 05:07:57;;;;;;;1.60;1.00;;;;;;;10.07;100.00;99176.50;5054184;28;20131;-66
2023/10/28 05:10:23;;;;;;;4.15;1.20;;;;;;;10.11;100.00;99174.66;5052882;28;20819;-66
2023/10/28 05:12:49;;;;;;;2.35;1.13;;;;;;;10.12;100.00;99172.03;5053967;28;20470;-66
2023/10/28 05:15:14;;;;;;;3.65;1.10;;;;;;;10.14;100.00;99159.06;5053684;28;20044;-66
2023/10/28 05:17:40;;;;;;;2.60;0.90;;;;;;;10.13;100.00;99158.22;5053292;28;20037;-66
2023/10/28 05:20:06;;;;;;;1.23;0.88;;;;;;;10.15;100.00;99169.34;5055842;28;20421;-66
2023/10/28 05:22:36;;;;;;;3.75;1.10;;;;;;;10.18;100.00;99165.81;5053876;28;20842;-67
2023/10/28 05:25:04;;;;;;;6.00;1.10;;;;;;;10.18;100.00;99169.25;5050669;28;20108;-66
2023/10/28 05:27:30;;;;;;;4.20;0.98;;;;;;;10.18;100.00;99163.22;5051188;28;20120;-65
2023/10/28 05:29:55;;;;;;;4.38;1.17;;;;;;;10.19;100.00;99159.75;5055442;28;20048;-66
2023/10/28 05:32:21;;;;;;;2.80;1.05;;;;;;;10.19;100.00;99154.59;5055455;28;20036;-65
2023/10/28 05:34:46;;;;;;;4.32;1.08;;;;;;;10.22;100.00;99163.09;5058122;28;20043;-66
2023/10/28 05:37:11;;;;;;;3.53;1.20;;;;;;;10.25;100.00;99159.56;5054114;28;20036;-66
2023/10/28 05:39:40;;;;;;;3.53;1.13;;;;;;;10.28;100.00;99158.63;5050761;28;20032;-65
2023/10/28 05:42:06;;;;;;;6.18;1.38;;;;;;;10.31;100.00;99166.25;5051317;28;20045;-65
2023/10/28 05:44:31;;;;;;;2.70;1.00;;;;;;;10.34;100.00;99167.00;5055258;28;20081;-66
2023/10/28 05:46:59;;;;;;;2.33;1.10;;;;;;;10.34;100.00;99167.00;5050626;28;20047;-66
2023/10/28 05:49:25;;;;;;;3.50;1.50;;;;;;;10.34;100.00;99172.19;5043046;28;20039;-66
2023/10/28 05:51:50;;;;;;;6.80;1.60;;;;;;;10.35;100.00;99171.28;5055309;28;20049;-65
2023/10/28 05:54:16;;;;;;;3.80;0.93;;;;;;;10.35;100.00;99173.03;5047512;28;20082;-66
2023/10/28 05:56:41;;;;;;;2.40;1.00;;;;;;;10.34;100.00;99171.34;5038514;28;20098;-67
2023/10/28 05:59:08;;;;;;;2.85;1.27;;;;;;;10.31;100.00;99174.88;5053563;28;20028;-66
2023/10/28 06:01:34;;;;;;;4.97;1.08;;;;;;;10.29;100.00;99181.81;5054423;28;20486;-66
2023/10/28 06:04:00;;;;;;;4.28;1.10;;;;;;;10.23;100.00;99190.63;5056208;28;20066;-66
2023/10/28 06:06:27;;;;;;;4.13;1.15;;;;;;;10.24;100.00;99188.84;5029895;28;20530;-66
2023/10/28 06:08:53;;;;;;;3.63;1.25;;;;;;;10.22;100.00;99191.50;5054048;28;20045;-66
2023/10/28 06:11:18;;;;;;;3.92;1.45;;;;;;;10.24;100.00;99196.59;5053220;28;20032;-66
2023/10/28 06:13:44;;;;;;;2.72;1.17;;;;;;;10.23;100.00;99189.78;5056422;28;20423;-66
2023/10/28 06:16:10;;;;;;;5.38;1.38;;;;;;;10.22;100.00;99196.66;5055479;28;20063;-66
2023/10/28 06:18:36;;;;;;;3.47;1.27;;;;;;;10.24;100.00;99200.03;5051800;28;20164;-66
2023/10/28 06:21:02;;;;;;;3.97;1.50;;;;;;;10.24;100.00;99194.00;5049346;28;20570;-67
2023/10/28 06:23:27;;;;;;;2.92;1.60;;;;;;;10.26;100.00;99205.16;5059007;28;20024;-66
2023/10/28 06:25:52;;;;;;;2.17;1.30;;;;;;;10.28;100.00;99199.94;5059810;28;20475;-66
2023/10/28 06:28:18;;;;;;;3.35;1.70;;;;;;;10.30;100.00;99205.91;5063153;28;20051;-66
2023/10/28 06:30:48;;;;;;;4.03;1.40;;;;;;;10.31;100.00;99205.00;5052533;28;20043;-66
2023/10/28 06:33:13;;;;;;;5.18;2.08;;;;;;;10.33;100.00;99209.22;5058329;28;20044;-66
2023/10/28 06:35:39;;;;;;;4.22;2.25;;;;;;;10.34;100.00;99220.41;5055776;28;20045;-65
2023/10/28 06:38:06;;;;;;;5.53;3.13;;;;;;;10.35;100.00;99209.19;5057673;28;20086;-65
2023/10/28 06:40:32;;;;;;;5.05;2.38;;;;;;;10.35;100.00;99206.59;5059230;28;20062;-66
2023/10/28 06:42:57;;;;;;;14.25;9.00;;;;;;;10.36;100.00;99214.28;5057215;28;20099;-65
2023/10/28 06:45:22;;;;;;;6.30;4.93;;;;;;;10.40;100.00;99215.03;5051702;28;20032;-65
2023/10/28 06:47:48;;;;;;;15.38;9.85;;;;;;;10.41;100.00;99220.16;5052241;28;20062;-66
2023/10/28 06:50:17;;;;;;;12.80;8.85;;;;;;;10.42;100.00;99221.00;5057912;28;20055;-66
2023/10/28 06:52:42;;;;;;;17.75;11.27;;;;;;;10.45;100.00;99218.31;5051722;28;20483;-66
2023/10/28 06:55:12;;;;;;;16.88;10.27;;;;;;;10.49;100.00;99217.31;5058954;28;20040;-66
2023/10/28 06:57:37;;;;;;;8.43;6.93;;;;;;;10.53;100.00;99217.19;5055841;28;20717;-65
2023/10/28 07:00:04;;;;;;;9.80;6.43;;;;;;;10.57;100.00;99223.06;5055338;28;20055;-65
2023/10/28 07:02:30;;;;;;;3.58;2.83;;;;;;;10.60;100.00;99218.66;5053622;28;20029;-65
2023/10/28 07:04:55;;;;;;;4.38;2.45;;;;;;;10.67;100.00;99229.66;5055966;28;20052;-65
2023/10/28 07:07:21;;;;;;;2.72;1.80;;;;;;;10.71;100.00;99223.50;5042749;28;20043;-65
2023/10/28 07:09:46;;;;;;;3.08;1.23;;;;;;;10.72;100.00;99220.84;5060118;28;20638;-66
2023/10/28 07:12:12;;;;;;;4.88;1.52;;;;;;;10.76;100.00;99229.34;5058938;28;20036;-65
2023/10/28 07:14:37;;;;;;;3.78;2.40;;;;;;;10.78;100.00;99222.38;5055396;28;20033;-65
2023/10/28 07:17:03;;;;;;;6.13;2.97;;;;;;;10.78;100.00;99230.13;5057252;28;20046;-66
2023/10/28 07:19:28;;;;;;;6.03;3.35;;;;;;;10.82;100.00;99220.53;5059776;28;20043;-65
2023/10/28 07:21:53;;;;;;;5.72;3.60;;;;;;;10.81;100.00;99219.69;5059507;28;20147;-66
2023/10/28 07:24:20;;;;;;;1.95;1.45;;;;;;;10.83;100.00;99220.50;5058707;28;20033;-66
2023/10/28 07:26:46;;;;;;;2.13;1.52;;;;;;;10.84;100.00;99229.06;5053817;28;20059;-66
2023/10/28 07:29:11;;;;;;;3.17;1.52;;;;;;;10.84;100.00;99229.91;5057419;28;20535;-66
2023/10/28 07:31:38;;;;;;;2.05;1.40;;;;;;;10.84;100.00;99229.91;5039705;28;20052;-66
2023/10/28 07:34:07;;;;;;;2.92;1.55;;;;;;;10.87;100.00;99228.97;5053576;28;20039;-66
2023/10/28 07:36:32;;;;;;;2.08;1.38;;;;;;;10.87;100.00;99234.13;5056611;28;20056;-66
2023/10/28 07:39:01;;;;;;;5.47;1.30;;;;;;;10.87;100.00;99234.13;5056557;28;20040;-66
2023/10/28 07:41:28;;;;;;;2.42;1.98;;;;;;;10.88;100.00;99234.09;5047636;28;20033;-66
2023/10/28 07:43:53;;;;;;;12.63;8.48;;;;;;;10.91;100.00;99234.00;5058217;28;20111;-67
2023/10/28 07:46:19;;;;;;;11.35;7.28;;;;;;;10.95;100.00;99234.75;5057605;28;20041;-66
2023/10/28 07:48:45;;;;;;;13.43;9.45;;;;;;;10.97;100.00;99238.94;5054495;28;20032;-66
2023/10/28 07:51:13;;;;;;;6.70;4.43;;;;;;;11.01;100.00;99239.69;5060621;28;20040;-66
2023/10/28 07:53:38;;;;;;;4.18;2.85;;;;;;;11.04;100.00;99244.75;5054632;28;20106;-68
2023/10/28 07:56:04;;;;;;;6.82;2.75;;;;;;;11.08;100.00;99246.31;5039390;28;20036;-66
2023/10/28 07:58:29;;;;;;;4.28;2.17;;;;;;;11.13;100.00;99252.19;5053558;28;20042;-66
2023/10/28 08:00:55;;;;;;;5.47;2.25;;;;;;;11.16;100.00;99252.91;5054652;28;20071;-66
2023/10/28 08:03:20;;;;;;;7.22;2.28;;;;;;;11.21;100.00;99248.44;5059102;28;20052;-66
2023/10/28 08:05:45;;;;;;;3.97;2.05;;;;;;;11.27;100.00;99255.16;5056126;28;20028;-66
2023/10/28 08:08:11;;;;;;;5.07;2.38;;;;;;;11.31;100.00;99267.06;5054291;28;20090;-66
2023/10/28 08:10:40;;;;;;;4.72;2.10;;;;;;;11.33;100.00;99266.13;5056403;28;20039;-66
2023/10/28 08:13:05;;;;;;;3.35;1.85;;;;;;;11.36;100.00;99267.75;5051576;28;20044;-66
2023/10/28 08:15:30;;;;;;;7.22;2.45;;;;;;;11.41;100.00;99270.16;5056176;28;20052;-66
2023/10/28 08:17:56;;;;;;;5.13;1.70;;;;;;;11.45;100.00;99266.63;5057675;28;20560;-66
2023/10/28 08:20:21;;;;;;;4.43;1.60;;;;;;;11.50;100.00;99262.13;5055656;28;20039;-66
2023/10/28 08:22:47;;;;;;;3.42;2.00;;;;;;;11.56;100.00;99269.66;5055202;28;20033;-66
2023/10/28 08:25:16;;;;;;;6.20;2.28;;;;;;;11.59;100.00;99256.59;5056860;28;20078;-66
2023/10/28 08:27:44;;;;;;;7.00;2.00;;;;;;;11.62;100.00;99270.28;5054428;28;20566;-66
2023/10/28 08:30:17;;;;;;;3.92;1.42;;;;;;;11.69;100.00;99269.13;5049694;28;20044;-66
2023/10/28 08:32:43;;;;;;;5.05;1.33;;;;;;;11.74;100.00;99267.25;5039513;28;20040;-65
2023/10/28 08:35:09;;;;;;;5.53;1.80;;;;;;;11.80;100.00;99263.59;5067704;28;20108;-65
2023/10/28 08:37:34;;;;;;;4.88;1.50;;;;;;;11.80;100.00;99273.94;5052083;28;20418;-66
2023/10/28 08:40:00;;;;;;;5.28;1.50;;;;;;;11.83;100.00;99273.81;5058238;28;20116;-66
2023/10/28 08:42:25;;;;;;;5.47;1.35;;;;;;;11.86;100.00;99279.75;5054234;28;20090;-66
2023/10/28 08:44:52;;;;;;;3.95;1.50;;;;;;;11.90;100.00;99286.47;5053913;28;20045;-68
2023/10/28 08:47:23;;;;;;;4.22;1.95;;;;;;;11.94;100.00;99291.53;5056607;28;20043;-68
2023/10/28 08:49:51;;;;;;;5.97;1.70;;;;;;;11.99;100.00;99287.88;5050426;28;20399;-68
2023/10/28 08:52:18;;;;;;;2.90;1.60;;;;;;;12.05;100.00;99295.41;5059067;28;20041;-68
2023/10/28 08:54:45;;;;;;;8.25;2.60;;;;;;;12.08;100.00;99295.28;5056466;28;20097;-68
2023/10/28 08:57:11;;;;;;;4.53;1.90;;;;;;;12.15;100.00;99296.75;5057435;28;20424;-68
2023/10/28 08:59:37;;;;;;;6.18;2.00;;;;;;;12.25;100.00;99305.03;5051735;28;20491;-68
2023/10/28 09:02:08;;;;;;;5.15;1.55;;;;;;;12.34;100.00;99308.13;5050905;28;20039;-68
2023/10/28 09:04:34;;;;;;;7.97;2.95;;;;;;;12.37;100.00;99305.41;5056093;28;20151;-69
2023/10/28 09:07:01;;;;;;;6.30;2.47;;;;;;;12.41;100.00;99299.19;5056511;28;20047;-66
2023/10/28 09:09:27;;;;;;;6.90;2.72;;;;;;;12.44;100.00;99306.84;5053606;28;20040;-66
2023/10/28 09:11:57;;;;;;;11.25;2.58;;;;;;;12.47;100.00;99305.88;5057425;28;20037;-66
2023/10/28 09:14:23;;;;;;;9.50;2.35;;;;;;;12.54;100.00;99309.94;5052925;28;20044;-66
2023/10/28 09:16:48;;;;;;;5.82;1.80;;;;;;;12.58;100.00;99308.91;5056919;28;20055;-66
2023/10/28 09:19:22;;;;;;;4.50;1.92;;;;;;;12.64;100.00;99310.41;5053382;28;20414;-66
2023/10/28 09:21:48;;;;;;;5.38;2.15;;;;;;;12.70;100.00;99312.75;5053221;28;20589;-66
2023/10/28 09:24:14;;;;;;;5.22;1.70;;;;;;;12.82;100.00;99314.88;5053505;28;20462;-66
2023/10/28 09:26:40;;;;;;;4.10;1.40;;;;;;;12.91;100.00;99309.31;5058835;28;20767;-66
2023/10/28 09:29:05;;;;;;;5.90;1.88;;;;;;;12.95;100.00;99309.09;5055704;28;20044;-65
2023/10/28 09:31:32;;;;;;;6.50;1.95;;;;;;;13.08;100.00;99299.09;5043899;28;20037;-66
2023/10/28 09:33:59;;;;;;;6.03;1.88;;;;;;;13.16;100.00;99311.75;5055702;28;20094;-66
2023/10/28 09:36:24;;;;;;;3.28;1.42;;;;;;;13.26;100.00;99318.25;5053531;28;20205;-65
2023/10/28 09:38:51;;;;;;;2.50;0.90;;;;;;;13.40;100.00;99324.53;5038886;28;20094;-65
2023/10/28 09:41:19;;;;;;;1.98;1.00;;;;;;;13.52;100.00;99317.97;5053905;28;20039;-67
2023/10/28 09:43:44;;;;;;;2.53;1.20;;;;;;;13.65;100.00;99318.28;5054861;28;20133;-65
2023/10/28 09:46:10;;;;;;;3.10;0.95;;;;;;;13.74;100.00;99316.09;5058313;28;20712;-66
2023/10/28 09:48:39;;;;;;;4.22;1.00;;;;;;;13.82;100.00;99311.44;5052498;28;20101;-66
2023/10/28 09:51:05;;;;;;;3.22;1.25;;;;;;;13.97;100.00;99309.91;5053339;28;20048;-65
2023/10/28 09:53:36;;;;;;;6.30;1.13;;;;;;;14.08;100.00;99315.44;5051371;28;20045;-65
2023/10/28 09:56:03;;;;;;;4.20;0.80;;;;;;;14.25;100.00;99320.69;5054744;28;20050;-65
2023/10/28 09:58:33;;;;;;;4.35;0.80;;;;;;;14.36;100.00;99313.28;5056337;28;20033;-65
2023/10/28 10:01:14;;;;;;;4.00;1.20;;;;;;;14.54;100.00;99322.81;5058405;28;20658;-65
2023/10/28 10:03:58;;;;;;;2.13;1.15;;;;;;;14.62;100.00;99318.09;5059982;28;20474;-65
2023/10/28 10:06:24;;;;;;;3.30;1.10;;;;;;;14.81;100.00;99322.44;5059508;28;20047;-64
2023/10/28 10:08:52;;;;;;;3.33;0.82;;;;;;;14.82;98.83;99319.75;5039288;28;20202;-65
2023/10/28 10:11:22;;;;;;;1.17;0.65;;;;;;;14.87;99.21;99316.94;5058269;28;20028;-65
2023/10/28 10:13:47;;;;;;;2.95;0.75;;;;;;;14.96;98.75;99325.09;5066817;28;20033;-64
2023/10/28 10:16:49;;;;;;;1.48;0.77;;;;;;;15.00;95.29;99311.03;5054852;28;20047;-64
2023/10/28 10:19:35;;;;;;;4.35;1.27;;;;;;;15.13;94.59;99314.72;5055966;28;20628;-67
2023/10/28 10:22:08;;;;;;;5.40;0.85;;;;;;;15.02;90.57;99308.34;5060833;28;20049;-67
2023/10/28 10:24:33;;;;;;;4.72;0.80;;;;;;;15.02;92.56;99321.34;5057877;28;20197;-68
2023/10/28 10:27:00;;;;;;;1.95;0.70;;;;;;;14.95;92.40;99320.84;5056898;28;20791;-67
2023/10/28 10:29:26;;;;;;;4.03;0.80;;;;;;;14.84;91.90;99314.47;5053762;28;20680;-67
2023/10/28 10:31:53;;;;;;;4.15;1.00;;;;;;;14.74;93.30;99328.84;5052392;28;20021;-67
2023/10/28 10:34:39;;;;;;;2.38;0.80;;;;;;;14.63;93.24;99327.56;5058700;28;20607;-65
2023/10/28 10:37:05;;;;;;;3.47;1.30;;;;;;;14.68;91.06;99308.31;5048358;28;20045;-65
2023/10/28 10:39:52;;;;;;;4.18;0.95;;;;;;;14.65;90.50;99315.38;5055132;28;20078;-66
2023/10/28 10:42:18;;;;;;;5.32;0.82;;;;;;;14.74;90.62;99323.63;5042955;28;20048;-65
2023/10/28 10:44:43;;;;;;;6.72;1.58;;;;;;;14.77;88.62;99294.88;5061482;28;20032;-65
2023/10/28 10:47:09;;;;;;;5.15;1.35;;;;;;;14.82;87.25;99290.28;5060867;28;20055;-65
2023/10/28 10:49:38;;;;;;;6.45;1.60;;;;;;;14.87;85.86;99277.91;5061733;28;20039;-65
2023/10/28 10:52:04;;;;;;;9.38;1.88;;;;;;;14.87;85.41;99283.13;5052877;28;20115;-65
2023/10/28 10:54:31;;;;;;;11.13;1.95;;;;;;;14.80;83.45;99266.97;5057934;28;20036;-65
2023/10/28 10:56:57;;;;;;;12.45;2.25;;;;;;;14.78;84.25;99278.38;5052752;28;20136;-65
2023/10/28 10:59:22;;;;;;;4.75;1.10;;;;;;;14.76;84.57;99287.97;5058541;28;20029;-65
2023/10/28 11:01:48;;;;;;;4.43;1.42;;;;;;;14.75;84.01;99284.53;5041199;28;20028;-65
2023/10/28 11:04:14;;;;;;;7.38;1.45;;;;;;;14.81;84.57;99299.84;5067761;28;20451;-65
2023/10/28 11:06:39;;;;;;;4.35;1.10;;;;;;;14.82;84.46;99292.88;5052865;28;20045;-65
2023/10/28 11:09:06;;;;;;;6.25;1.42;;;;;;;14.89;83.96;99278.66;5058867;28;20054;-65
2023/10/28 11:11:38;;;;;;;8.27;1.50;;;;;;;14.92;83.13;99260.31;5062583;28;20032;-66
2023/10/28 11:14:04;;;;;;;6.43;1.40;;;;;;;14.98;83.26;99260.84;5059619;28;20154;-65
2023/10/28 11:16:31;;;;;;;5.20;1.50;;;;;;;15.11;84.48;99276.66;5060179;28;20398;-68
2023/10/28 11:18:57;;;;;;;7.65;1.00;;;;;;;15.20;84.79;99279.66;5063346;28;20044;-68
2023/10/28 11:21:23;;;;;;;7.32;1.70;;;;;;;15.23;82.05;99238.78;5057585;28;20415;-68
2023/10/28 11:23:49;;;;;;;8.60;2.05;;;;;;;15.29;82.63;99235.84;5058983;28;20040;-68